sensor_id;sensor_type;location;lat;lon;timestamp;temperature;humidity
68764;DHT22;55754;52.038;5.566;2023-03-25T00:00:08;10.80;87.30
68764;DHT22;55754;52.038;5.566;2023-03-25T00:02:46;10.80;87.30
68764;DHT22;55754;52.038;5.566;2023-03-25T00:05:14;10.80;87.70
68764;DHT22;55754;52.038;5.566;2023-03-25T00:07:42;10.80;87.90
68764;DHT22;55754;52.038;5.566;2023-03-25T00:10:08;10.80;87.00
68764;DHT22;55754;52.038;5.566;2023-03-25T00:12:34;10.80;86.80
68764;DHT22;55754;52.038;5.566;2023-03-25T00:15:00;10.80;86.50
68764;DHT22;55754;52.038;5.566;2023-03-25T00:17:26;10.80;86.30
68764;DHT22;55754;52.038;5.566;2023-03-25T00:19:54;10.80;86.40
68764;DHT22;55754;52.038;5.566;2023-03-25T00:22:20;10.80;86.60
68764;DHT22;55754;52.038;5.566;2023-03-25T00:24:46;10.70;86.30
68764;DHT22;55754;52.038;5.566;2023-03-25T00:27:12;10.80;86.60
68764;DHT22;55754;52.038;5.566;2023-03-25T00:29:39;10.70;86.50
68764;DHT22;55754;52.038;5.566;2023-03-25T00:32:05;10.70;86.40
68764;DHT22;55754;52.038;5.566;2023-03-25T00:34:31;10.70;86.40
68764;DHT22;55754;52.038;5.566;2023-03-25T00:36:59;10.70;86.60
68764;DHT22;55754;52.038;5.566;2023-03-25T00:39:27;10.70;86.50
68764;DHT22;55754;52.038;5.566;2023-03-25T00:41:53;10.70;86.50
68764;DHT22;55754;52.038;5.566;2023-03-25T00:44:21;10.70;87.40
68764;DHT22;55754;52.038;5.566;2023-03-25T00:46:47;10.70;86.30
68764;DHT22;55754;52.038;5.566;2023-03-25T00:49:13;10.70;86.20
68764;DHT22;55754;52.038;5.566;2023-03-25T00:51:38;10.70;86.10
68764;DHT22;55754;52.038;5.566;2023-03-25T00:54:04;10.80;86.20
68764;DHT22;55754;52.038;5.566;2023-03-25T00:56:30;10.70;85.90
68764;DHT22;55754;52.038;5.566;2023-03-25T00:58:56;10.70;85.70
68764;DHT22;55754;52.038;5.566;2023-03-25T01:01:25;10.70;85.60
68764;DHT22;55754;52.038;5.566;2023-03-25T01:03:57;10.70;85.30
68764;DHT22;55754;52.038;5.566;2023-03-25T01:06:25;10.70;85.60
68764;DHT22;55754;52.038;5.566;2023-03-25T01:08:54;10.70;85.30
68764;DHT22;55754;52.038;5.566;2023-03-25T01:11:29;10.70;85.40
68764;DHT22;55754;52.038;5.566;2023-03-25T01:13:59;10.70;85.00
68764;DHT22;55754;52.038;5.566;2023-03-25T01:16:25;10.70;85.30
68764;DHT22;55754;52.038;5.566;2023-03-25T01:18:51;10.70;85.10
68764;DHT22;55754;52.038;5.566;2023-03-25T01:21:17;10.70;85.20
68764;DHT22;55754;52.038;5.566;2023-03-25T01:23:42;10.70;85.00
68764;DHT22;55754;52.038;5.566;2023-03-25T01:26:08;10.70;85.00
68764;DHT22;55754;52.038;5.566;2023-03-25T01:28:34;10.70;84.80
68764;DHT22;55754;52.038;5.566;2023-03-25T01:31:05;10.70;84.40
68764;DHT22;55754;52.038;5.566;2023-03-25T01:33:31;10.60;84.30
68764;DHT22;55754;52.038;5.566;2023-03-25T01:35:57;10.60;84.30
68764;DHT22;55754;52.038;5.566;2023-03-25T01:38:23;10.60;84.20
68764;DHT22;55754;52.038;5.566;2023-03-25T01:40:53;10.60;84.60
68764;DHT22;55754;52.038;5.566;2023-03-25T01:43:19;10.70;84.70
68764;DHT22;55754;52.038;5.566;2023-03-25T01:45:49;10.60;84.80
68764;DHT22;55754;52.038;5.566;2023-03-25T01:48:25;10.60;85.10
68764;DHT22;55754;52.038;5.566;2023-03-25T01:51:03;10.60;85.60
68764;DHT22;55754;52.038;5.566;2023-03-25T01:53:32;10.60;86.00
68764;DHT22;55754;52.038;5.566;2023-03-25T01:56:00;10.60;86.30
68764;DHT22;55754;52.038;5.566;2023-03-25T01:58:28;10.50;86.30
68764;DHT22;55754;52.038;5.566;2023-03-25T02:00:56;10.50;86.60
68764;DHT22;55754;52.038;5.566;2023-03-25T02:03:23;10.40;86.70
68764;DHT22;55754;52.038;5.566;2023-03-25T02:06:00;10.50;86.90
68764;DHT22;55754;52.038;5.566;2023-03-25T02:08:28;10.40;86.80
68764;DHT22;55754;52.038;5.566;2023-03-25T02:10:57;10.40;87.00
68764;DHT22;55754;52.038;5.566;2023-03-25T02:13:22;10.40;87.60
68764;DHT22;55754;52.038;5.566;2023-03-25T02:24:23;10.30;90.80
68764;DHT22;55754;52.038;5.566;2023-03-25T02:27:15;10.20;91.40
68764;DHT22;55754;52.038;5.566;2023-03-25T02:38:24;10.00;92.90
68764;DHT22;55754;52.038;5.566;2023-03-25T02:41:30;10.00;93.30
68764;DHT22;55754;52.038;5.566;2023-03-25T02:44:04;10.00;93.20
68764;DHT22;55754;52.038;5.566;2023-03-25T02:46:32;10.00;93.90
68764;DHT22;55754;52.038;5.566;2023-03-25T02:49:14;9.90;93.50
68764;DHT22;55754;52.038;5.566;2023-03-25T02:52:14;10.00;93.50
68764;DHT22;55754;52.038;5.566;2023-03-25T02:54:41;10.00;93.70
68764;DHT22;55754;52.038;5.566;2023-03-25T02:57:11;9.90;93.60
68764;DHT22;55754;52.038;5.566;2023-03-25T02:59:39;9.90;93.70
68764;DHT22;55754;52.038;5.566;2023-03-25T03:02:09;10.00;93.70
68764;DHT22;55754;52.038;5.566;2023-03-25T03:04:53;10.00;93.70
68764;DHT22;55754;52.038;5.566;2023-03-25T03:07:26;9.90;94.00
68764;DHT22;55754;52.038;5.566;2023-03-25T03:10:09;9.90;94.00
68764;DHT22;55754;52.038;5.566;2023-03-25T03:15:56;9.90;94.50
68764;DHT22;55754;52.038;5.566;2023-03-25T03:18:43;9.90;95.10
68764;DHT22;55754;52.038;5.566;2023-03-25T03:29:25;9.70;95.80
68764;DHT22;55754;52.038;5.566;2023-03-25T03:32:03;9.70;95.70
68764;DHT22;55754;52.038;5.566;2023-03-25T03:34:44;9.70;96.00
68764;DHT22;55754;52.038;5.566;2023-03-25T03:37:15;9.70;96.00
68764;DHT22;55754;52.038;5.566;2023-03-25T03:39:44;9.80;95.60
68764;DHT22;55754;52.038;5.566;2023-03-25T03:42:33;9.70;95.80
68764;DHT22;55754;52.038;5.566;2023-03-25T03:45:16;9.70;96.00
68764;DHT22;55754;52.038;5.566;2023-03-25T03:47:47;9.80;95.70
68764;DHT22;55754;52.038;5.566;2023-03-25T03:50:18;9.80;95.50
68764;DHT22;55754;52.038;5.566;2023-03-25T03:53:26;9.80;95.50
68764;DHT22;55754;52.038;5.566;2023-03-25T03:55:46;9.80;95.50
68764;DHT22;55754;52.038;5.566;2023-03-25T03:58:21;9.80;95.40
68764;DHT22;55754;52.038;5.566;2023-03-25T04:01:13;9.80;95.40
68764;DHT22;55754;52.038;5.566;2023-03-25T04:03:40;9.80;95.00
68764;DHT22;55754;52.038;5.566;2023-03-25T04:09:35;9.80;95.30
68764;DHT22;55754;52.038;5.566;2023-03-25T04:12:15;9.80;94.90
68764;DHT22;55754;52.038;5.566;2023-03-25T04:14:42;9.80;95.00
68764;DHT22;55754;52.038;5.566;2023-03-25T04:17:08;9.80;95.00
68764;DHT22;55754;52.038;5.566;2023-03-25T04:19:34;9.80;95.00
68764;DHT22;55754;52.038;5.566;2023-03-25T04:22:01;9.80;95.20
68764;DHT22;55754;52.038;5.566;2023-03-25T04:24:27;9.70;95.20
68764;DHT22;55754;52.038;5.566;2023-03-25T04:26:59;9.80;95.10
68764;DHT22;55754;52.038;5.566;2023-03-25T04:29:28;9.80;95.00
68764;DHT22;55754;52.038;5.566;2023-03-25T04:31:54;9.80;95.30
68764;DHT22;55754;52.038;5.566;2023-03-25T04:34:21;9.80;95.00
68764;DHT22;55754;52.038;5.566;2023-03-25T04:36:47;9.80;95.10
68764;DHT22;55754;52.038;5.566;2023-03-25T04:39:14;9.70;95.50
68764;DHT22;55754;52.038;5.566;2023-03-25T04:41:42;9.70;95.30
68764;DHT22;55754;52.038;5.566;2023-03-25T04:44:09;10.60;95.90
68764;DHT22;55754;52.038;5.566;2023-03-25T04:46:36;9.70;95.90
68764;DHT22;55754;52.038;5.566;2023-03-25T04:49:05;9.70;96.10
68764;DHT22;55754;52.038;5.566;2023-03-25T04:51:38;9.70;96.40
68764;DHT22;55754;52.038;5.566;2023-03-25T04:54:06;9.70;96.10
68764;DHT22;55754;52.038;5.566;2023-03-25T04:56:32;9.60;96.40
68764;DHT22;55754;52.038;5.566;2023-03-25T04:59:04;9.60;96.20
68764;DHT22;55754;52.038;5.566;2023-03-25T05:01:31;9.60;96.50
68764;DHT22;55754;52.038;5.566;2023-03-25T05:04:02;9.50;96.30
68764;DHT22;55754;52.038;5.566;2023-03-25T05:06:32;9.50;96.60
68764;DHT22;55754;52.038;5.566;2023-03-25T05:08:59;9.50;96.60
68764;DHT22;55754;52.038;5.566;2023-03-25T05:11:30;9.60;96.50
68764;DHT22;55754;52.038;5.566;2023-03-25T05:13:56;9.50;96.80
68764;DHT22;55754;52.038;5.566;2023-03-25T05:16:21;9.50;96.70
68764;DHT22;55754;52.038;5.566;2023-03-25T05:18:47;9.50;97.40
68764;DHT22;55754;52.038;5.566;2023-03-25T05:21:13;9.50;96.80
68764;DHT22;55754;52.038;5.566;2023-03-25T05:23:38;9.40;96.70
68764;DHT22;55754;52.038;5.566;2023-03-25T05:26:06;9.40;96.70
68764;DHT22;55754;52.038;5.566;2023-03-25T05:28:32;9.30;96.70
68764;DHT22;55754;52.038;5.566;2023-03-25T05:30:58;9.30;96.80
68764;DHT22;55754;52.038;5.566;2023-03-25T05:33:24;9.30;96.70
68764;DHT22;55754;52.038;5.566;2023-03-25T05:35:49;9.30;97.30
68764;DHT22;55754;52.038;5.566;2023-03-25T05:38:15;9.20;97.20
68764;DHT22;55754;52.038;5.566;2023-03-25T05:40:44;9.20;97.20
68764;DHT22;55754;52.038;5.566;2023-03-25T05:43:11;9.20;97.50
68764;DHT22;55754;52.038;5.566;2023-03-25T05:45:37;9.20;97.50
68764;DHT22;55754;52.038;5.566;2023-03-25T05:48:02;9.20;97.30
68764;DHT22;55754;52.038;5.566;2023-03-25T05:50:29;9.30;97.30
68764;DHT22;55754;52.038;5.566;2023-03-25T05:52:55;9.20;97.20
68764;DHT22;55754;52.038;5.566;2023-03-25T05:55:23;9.30;97.30
68764;DHT22;55754;52.038;5.566;2023-03-25T05:57:48;9.20;97.70
68764;DHT22;55754;52.038;5.566;2023-03-25T06:00:16;9.30;97.50
68764;DHT22;55754;52.038;5.566;2023-03-25T06:02:43;9.20;97.90
68764;DHT22;55754;52.038;5.566;2023-03-25T06:05:11;9.30;97.80
68764;DHT22;55754;52.038;5.566;2023-03-25T06:07:44;9.30;98.20
68764;DHT22;55754;52.038;5.566;2023-03-25T06:10:13;9.30;98.10
68764;DHT22;55754;52.038;5.566;2023-03-25T06:12:42;9.30;98.10
68764;DHT22;55754;52.038;5.566;2023-03-25T06:15:09;9.30;98.00
68764;DHT22;55754;52.038;5.566;2023-03-25T06:17:35;9.30;98.30
68764;DHT22;55754;52.038;5.566;2023-03-25T06:20:07;9.30;98.20
68764;DHT22;55754;52.038;5.566;2023-03-25T06:22:43;9.40;98.10
68764;DHT22;55754;52.038;5.566;2023-03-25T06:25:15;10.30;98.90
68764;DHT22;55754;52.038;5.566;2023-03-25T06:27:46;9.40;98.40
68764;DHT22;55754;52.038;5.566;2023-03-25T06:30:15;9.40;98.10
68764;DHT22;55754;52.038;5.566;2023-03-25T06:32:41;9.40;98.00
68764;DHT22;55754;52.038;5.566;2023-03-25T06:35:08;9.40;97.90
68764;DHT22;55754;52.038;5.566;2023-03-25T06:37:34;9.50;98.00
68764;DHT22;55754;52.038;5.566;2023-03-25T06:40:00;9.40;98.20
68764;DHT22;55754;52.038;5.566;2023-03-25T06:42:27;9.40;98.40
68764;DHT22;55754;52.038;5.566;2023-03-25T06:44:53;9.40;98.10
68764;DHT22;55754;52.038;5.566;2023-03-25T06:47:20;9.40;97.90
68764;DHT22;55754;52.038;5.566;2023-03-25T06:49:45;9.40;97.90
68764;DHT22;55754;52.038;5.566;2023-03-25T06:52:11;9.50;97.70
68764;DHT22;55754;52.038;5.566;2023-03-25T06:54:37;9.50;97.60
68764;DHT22;55754;52.038;5.566;2023-03-25T06:57:03;9.60;97.30
68764;DHT22;55754;52.038;5.566;2023-03-25T06:59:29;9.60;97.10
68764;DHT22;55754;52.038;5.566;2023-03-25T07:01:57;9.60;97.00
68764;DHT22;55754;52.038;5.566;2023-03-25T07:04:24;9.70;97.20
68764;DHT22;55754;52.038;5.566;2023-03-25T07:06:50;9.60;97.20
68764;DHT22;55754;52.038;5.566;2023-03-25T07:09:16;9.60;97.20
68764;DHT22;55754;52.038;5.566;2023-03-25T07:11:42;9.60;97.20
68764;DHT22;55754;52.038;5.566;2023-03-25T07:14:08;9.50;97.30
68764;DHT22;55754;52.038;5.566;2023-03-25T07:16:33;8.20;96.90
68764;DHT22;55754;52.038;5.566;2023-03-25T07:18:59;9.70;97.50
68764;DHT22;55754;52.038;5.566;2023-03-25T07:21:25;9.60;97.60
68764;DHT22;55754;52.038;5.566;2023-03-25T07:23:51;9.60;97.40
68764;DHT22;55754;52.038;5.566;2023-03-25T07:26:17;9.60;98.00
68764;DHT22;55754;52.038;5.566;2023-03-25T07:28:43;9.60;97.70
68764;DHT22;55754;52.038;5.566;2023-03-25T07:31:10;9.40;97.80
68764;DHT22;55754;52.038;5.566;2023-03-25T07:33:37;9.60;97.90
68764;DHT22;55754;52.038;5.566;2023-03-25T07:36:04;9.50;98.00
68764;DHT22;55754;52.038;5.566;2023-03-25T07:38:30;9.50;98.10
68764;DHT22;55754;52.038;5.566;2023-03-25T07:40:56;9.50;98.00
68764;DHT22;55754;52.038;5.566;2023-03-25T07:43:22;9.50;98.10
68764;DHT22;55754;52.038;5.566;2023-03-25T07:45:47;9.50;98.10
68764;DHT22;55754;52.038;5.566;2023-03-25T07:48:13;9.50;98.40
68764;DHT22;55754;52.038;5.566;2023-03-25T07:50:41;9.50;98.10
68764;DHT22;55754;52.038;5.566;2023-03-25T07:53:06;9.50;98.30
68764;DHT22;55754;52.038;5.566;2023-03-25T07:55:32;9.60;98.10
68764;DHT22;55754;52.038;5.566;2023-03-25T07:57:58;9.80;98.30
68764;DHT22;55754;52.038;5.566;2023-03-25T08:00:26;9.80;98.60
68764;DHT22;55754;52.038;5.566;2023-03-25T08:02:52;9.90;98.60
68764;DHT22;55754;52.038;5.566;2023-03-25T08:05:18;9.90;98.40
68764;DHT22;55754;52.038;5.566;2023-03-25T08:07:50;10.00;97.80
68764;DHT22;55754;52.038;5.566;2023-03-25T08:10:16;10.00;97.70
68764;DHT22;55754;52.038;5.566;2023-03-25T08:12:43;10.10;97.40
68764;DHT22;55754;52.038;5.566;2023-03-25T08:15:09;11.10;98.00
68764;DHT22;55754;52.038;5.566;2023-03-25T08:17:36;10.10;97.20
68764;DHT22;55754;52.038;5.566;2023-03-25T08:20:03;10.00;97.10
68764;DHT22;55754;52.038;5.566;2023-03-25T08:22:30;10.00;97.00
68764;DHT22;55754;52.038;5.566;2023-03-25T08:24:56;10.00;97.30
68764;DHT22;55754;52.038;5.566;2023-03-25T08:27:22;10.00;97.40
68764;DHT22;55754;52.038;5.566;2023-03-25T08:29:48;10.00;97.30
68764;DHT22;55754;52.038;5.566;2023-03-25T08:32:23;10.00;97.00
68764;DHT22;55754;52.038;5.566;2023-03-25T08:34:49;10.00;97.00
68764;DHT22;55754;52.038;5.566;2023-03-25T08:37:15;10.00;96.90
68764;DHT22;55754;52.038;5.566;2023-03-25T08:39:41;10.20;97.10
68764;DHT22;55754;52.038;5.566;2023-03-25T08:42:12;10.10;96.90
68764;DHT22;55754;52.038;5.566;2023-03-25T08:44:38;10.20;97.00
68764;DHT22;55754;52.038;5.566;2023-03-25T08:47:04;10.20;97.00
68764;DHT22;55754;52.038;5.566;2023-03-25T08:49:30;10.20;97.00
68764;DHT22;55754;52.038;5.566;2023-03-25T08:51:56;10.20;97.10
68764;DHT22;55754;52.038;5.566;2023-03-25T08:54:23;10.20;97.10
68764;DHT22;55754;52.038;5.566;2023-03-25T08:56:50;10.10;97.20
68764;DHT22;55754;52.038;5.566;2023-03-25T08:59:16;10.10;97.50
68764;DHT22;55754;52.038;5.566;2023-03-25T09:01:41;10.10;97.50
68764;DHT22;55754;52.038;5.566;2023-03-25T09:04:08;10.10;97.80
68764;DHT22;55754;52.038;5.566;2023-03-25T09:06:33;10.10;97.90
68764;DHT22;55754;52.038;5.566;2023-03-25T09:09:00;10.00;98.00
68764;DHT22;55754;52.038;5.566;2023-03-25T09:11:25;10.00;98.40
68764;DHT22;55754;52.038;5.566;2023-03-25T09:13:51;10.00;98.30
68764;DHT22;55754;52.038;5.566;2023-03-25T09:16:17;10.00;98.40
68764;DHT22;55754;52.038;5.566;2023-03-25T09:18:42;10.00;98.60
68764;DHT22;55754;52.038;5.566;2023-03-25T09:21:08;10.00;99.20
68764;DHT22;55754;52.038;5.566;2023-03-25T09:23:33;10.10;99.50
68764;DHT22;55754;52.038;5.566;2023-03-25T09:26:01;10.20;99.80
68764;DHT22;55754;52.038;5.566;2023-03-25T09:28:28;10.30;99.30
68764;DHT22;55754;52.038;5.566;2023-03-25T09:30:54;10.20;99.20
68764;DHT22;55754;52.038;5.566;2023-03-25T09:33:20;10.30;99.40
68764;DHT22;55754;52.038;5.566;2023-03-25T09:35:47;10.40;99.70
68764;DHT22;55754;52.038;5.566;2023-03-25T09:38:16;10.50;99.50
68764;DHT22;55754;52.038;5.566;2023-03-25T09:40:42;10.50;99.30
68764;DHT22;55754;52.038;5.566;2023-03-25T09:45:46;10.40;99.40
68764;DHT22;55754;52.038;5.566;2023-03-25T09:48:47;10.30;99.50
68764;DHT22;55754;52.038;5.566;2023-03-25T09:51:25;10.30;99.50
68764;DHT22;55754;52.038;5.566;2023-03-25T09:54:00;10.30;99.50
68764;DHT22;55754;52.038;5.566;2023-03-25T09:56:30;10.30;99.20
68764;DHT22;55754;52.038;5.566;2023-03-25T09:59:59;10.30;99.10
68764;DHT22;55754;52.038;5.566;2023-03-25T10:05:04;10.30;99.50
68764;DHT22;55754;52.038;5.566;2023-03-25T10:13:39;10.40;99.60
68764;DHT22;55754;52.038;5.566;2023-03-25T10:16:21;10.50;99.20
68764;DHT22;55754;52.038;5.566;2023-03-25T10:19:15;10.40;98.80
68764;DHT22;55754;52.038;5.566;2023-03-25T10:22:04;10.40;98.40
68764;DHT22;55754;52.038;5.566;2023-03-25T10:24:39;10.40;98.60
68764;DHT22;55754;52.038;5.566;2023-03-25T10:27:33;10.30;98.70
68764;DHT22;55754;52.038;5.566;2023-03-25T10:32:50;10.40;99.70
68764;DHT22;55754;52.038;5.566;2023-03-25T10:35:27;10.40;99.90
68764;DHT22;55754;52.038;5.566;2023-03-25T10:37:58;10.40;99.40
68764;DHT22;55754;52.038;5.566;2023-03-25T10:40:29;10.50;99.50
68764;DHT22;55754;52.038;5.566;2023-03-25T10:43:26;10.50;99.30
68764;DHT22;55754;52.038;5.566;2023-03-25T10:46:01;10.60;99.50
68764;DHT22;55754;52.038;5.566;2023-03-25T10:48:30;10.60;99.10
68764;DHT22;55754;52.038;5.566;2023-03-25T10:51:21;10.60;98.50
68764;DHT22;55754;52.038;5.566;2023-03-25T10:53:51;10.60;98.20
68764;DHT22;55754;52.038;5.566;2023-03-25T10:56:24;10.70;98.30
68764;DHT22;55754;52.038;5.566;2023-03-25T10:58:55;10.70;98.10
68764;DHT22;55754;52.038;5.566;2023-03-25T11:01:33;10.60;98.10
68764;DHT22;55754;52.038;5.566;2023-03-25T11:04:01;10.60;98.10
68764;DHT22;55754;52.038;5.566;2023-03-25T11:06:33;10.60;98.30
68764;DHT22;55754;52.038;5.566;2023-03-25T11:09:24;10.60;98.50
68764;DHT22;55754;52.038;5.566;2023-03-25T11:11:52;10.60;98.90
68764;DHT22;55754;52.038;5.566;2023-03-25T11:14:23;10.50;98.50
68764;DHT22;55754;52.038;5.566;2023-03-25T11:16:59;10.60;98.80
68764;DHT22;55754;52.038;5.566;2023-03-25T11:19:35;10.60;99.10
68764;DHT22;55754;52.038;5.566;2023-03-25T11:22:21;10.60;98.90
68764;DHT22;55754;52.038;5.566;2023-03-25T11:24:50;10.60;98.70
68764;DHT22;55754;52.038;5.566;2023-03-25T11:27:22;10.70;98.70
68764;DHT22;55754;52.038;5.566;2023-03-25T11:29:59;10.90;98.80
68764;DHT22;55754;52.038;5.566;2023-03-25T11:32:37;11.00;98.30
68764;DHT22;55754;52.038;5.566;2023-03-25T11:35:23;11.10;98.30
68764;DHT22;55754;52.038;5.566;2023-03-25T11:37:58;11.20;97.00
68764;DHT22;55754;52.038;5.566;2023-03-25T11:40:25;11.30;97.10
68764;DHT22;55754;52.038;5.566;2023-03-25T11:42:54;11.40;96.50
68764;DHT22;55754;52.038;5.566;2023-03-25T11:45:26;11.60;95.80
68764;DHT22;55754;52.038;5.566;2023-03-25T11:48:01;11.80;95.70
68764;DHT22;55754;52.038;5.566;2023-03-25T11:50:33;11.90;94.90
68764;DHT22;55754;52.038;5.566;2023-03-25T11:53:02;11.90;94.40
68764;DHT22;55754;52.038;5.566;2023-03-25T11:55:44;11.80;94.40
68764;DHT22;55754;52.038;5.566;2023-03-25T11:58:14;11.80;93.90
68764;DHT22;55754;52.038;5.566;2023-03-25T12:00:46;11.90;94.30
68764;DHT22;55754;52.038;5.566;2023-03-25T12:03:25;11.90;93.80
68764;DHT22;55754;52.038;5.566;2023-03-25T12:06:27;11.90;93.90
68764;DHT22;55754;52.038;5.566;2023-03-25T12:08:59;11.90;93.90
68764;DHT22;55754;52.038;5.566;2023-03-25T12:11:31;11.80;93.80
68764;DHT22;55754;52.038;5.566;2023-03-25T12:19:56;12.00;92.80
68764;DHT22;55754;52.038;5.566;2023-03-25T12:22:37;12.10;92.80
68764;DHT22;55754;52.038;5.566;2023-03-25T12:25:44;12.10;93.00
68764;DHT22;55754;52.038;5.566;2023-03-25T12:28:51;12.00;93.50
68764;DHT22;55754;52.038;5.566;2023-03-25T12:31:46;12.00;94.30
68764;DHT22;55754;52.038;5.566;2023-03-25T12:34:31;12.10;94.90
68764;DHT22;55754;52.038;5.566;2023-03-25T12:42:39;12.40;95.50
68764;DHT22;55754;52.038;5.566;2023-03-25T12:50:58;12.20;92.90
68764;DHT22;55754;52.038;5.566;2023-03-25T12:53:37;12.20;92.70
68764;DHT22;55754;52.038;5.566;2023-03-25T13:06:47;12.20;92.30
68764;DHT22;55754;52.038;5.566;2023-03-25T13:09:27;12.20;92.10
68764;DHT22;55754;52.038;5.566;2023-03-25T13:11:58;12.20;92.00
68764;DHT22;55754;52.038;5.566;2023-03-25T13:14:44;12.30;91.00
68764;DHT22;55754;52.038;5.566;2023-03-25T13:17:37;12.30;90.80
68764;DHT22;55754;52.038;5.566;2023-03-25T13:20:04;12.40;89.90
68764;DHT22;55754;52.038;5.566;2023-03-25T13:22:38;12.40;90.50
68764;DHT22;55754;52.038;5.566;2023-03-25T13:25:07;12.40;90.30
68764;DHT22;55754;52.038;5.566;2023-03-25T13:27:39;12.50;90.20
68764;DHT22;55754;52.038;5.566;2023-03-25T13:30:13;12.60;90.10
68764;DHT22;55754;52.038;5.566;2023-03-25T13:32:43;12.70;90.10
68764;DHT22;55754;52.038;5.566;2023-03-25T13:35:38;12.90;89.50
68764;DHT22;55754;52.038;5.566;2023-03-25T13:38:12;12.90;87.20
68764;DHT22;55754;52.038;5.566;2023-03-25T13:40:53;12.90;87.60
68764;DHT22;55754;52.038;5.566;2023-03-25T13:44:10;12.80;85.80
68764;DHT22;55754;52.038;5.566;2023-03-25T13:46:52;12.80;85.80
68764;DHT22;55754;52.038;5.566;2023-03-25T13:49:46;12.90;85.60
68764;DHT22;55754;52.038;5.566;2023-03-25T13:52:13;12.90;83.70
68764;DHT22;55754;52.038;5.566;2023-03-25T13:54:51;12.90;85.50
68764;DHT22;55754;52.038;5.566;2023-03-25T14:00:30;13.00;83.20
68764;DHT22;55754;52.038;5.566;2023-03-25T14:03:10;13.10;82.40
68764;DHT22;55754;52.038;5.566;2023-03-25T14:11:37;13.30;81.00
68764;DHT22;55754;52.038;5.566;2023-03-25T14:14:10;13.30;81.70
68764;DHT22;55754;52.038;5.566;2023-03-25T14:16:48;13.30;79.90
68764;DHT22;55754;52.038;5.566;2023-03-25T14:19:16;13.20;82.40
68764;DHT22;55754;52.038;5.566;2023-03-25T14:21:49;13.10;82.00
68764;DHT22;55754;52.038;5.566;2023-03-25T14:24:32;13.00;81.80
68764;DHT22;55754;52.038;5.566;2023-03-25T14:27:02;12.90;82.10
68764;DHT22;55754;52.038;5.566;2023-03-25T14:29:37;12.60;84.30
68764;DHT22;55754;52.038;5.566;2023-03-25T14:34:42;12.40;88.00
68764;DHT22;55754;52.038;5.566;2023-03-25T14:37:08;12.40;88.70
68764;DHT22;55754;52.038;5.566;2023-03-25T14:39:37;12.40;89.20
68764;DHT22;55754;52.038;5.566;2023-03-25T14:44:39;12.40;89.70
68764;DHT22;55754;52.038;5.566;2023-03-25T14:52:48;12.30;90.40
68764;DHT22;55754;52.038;5.566;2023-03-25T14:55:19;12.40;90.30
68764;DHT22;55754;52.038;5.566;2023-03-25T14:57:45;12.40;90.30
68764;DHT22;55754;52.038;5.566;2023-03-25T15:00:24;12.50;90.20
68764;DHT22;55754;52.038;5.566;2023-03-25T15:03:03;12.60;90.00
68764;DHT22;55754;52.038;5.566;2023-03-25T15:05:31;12.70;90.00
68764;DHT22;55754;52.038;5.566;2023-03-25T15:08:09;12.80;89.50
68764;DHT22;55754;52.038;5.566;2023-03-25T15:10:39;12.80;87.10
68764;DHT22;55754;52.038;5.566;2023-03-25T15:13:25;12.80;85.50
68764;DHT22;55754;52.038;5.566;2023-03-25T15:15:55;12.80;83.40
68764;DHT22;55754;52.038;5.566;2023-03-25T15:21:12;13.00;82.10
68764;DHT22;55754;52.038;5.566;2023-03-25T15:24:08;12.90;81.80
68764;DHT22;55754;52.038;5.566;2023-03-25T15:26:41;12.90;81.10
68764;DHT22;55754;52.038;5.566;2023-03-25T15:29:45;13.00;80.70
68764;DHT22;55754;52.038;5.566;2023-03-25T15:51:48;12.60;78.70
68764;DHT22;55754;52.038;5.566;2023-03-25T15:57:02;12.30;80.00
68764;DHT22;55754;52.038;5.566;2023-03-25T16:02:36;12.00;80.80
68764;DHT22;55754;52.038;5.566;2023-03-25T16:05:04;11.90;81.80
68764;DHT22;55754;52.038;5.566;2023-03-25T16:07:33;11.80;83.50
68764;DHT22;55754;52.038;5.566;2023-03-25T16:10:29;11.80;82.80
68764;DHT22;55754;52.038;5.566;2023-03-25T16:13:01;11.70;83.00
68764;DHT22;55754;52.038;5.566;2023-03-25T16:15:29;11.70;83.70
68764;DHT22;55754;52.038;5.566;2023-03-25T16:17:57;11.60;83.60
68764;DHT22;55754;52.038;5.566;2023-03-25T16:20:27;11.60;84.00
68764;DHT22;55754;52.038;5.566;2023-03-25T16:22:57;11.60;84.20
68764;DHT22;55754;52.038;5.566;2023-03-25T16:25:32;11.70;84.40
68764;DHT22;55754;52.038;5.566;2023-03-25T16:28:01;11.70;84.20
68764;DHT22;55754;52.038;5.566;2023-03-25T16:30:34;11.70;84.70
68764;DHT22;55754;52.038;5.566;2023-03-25T16:33:30;11.70;84.00
68764;DHT22;55754;52.038;5.566;2023-03-25T16:36:02;11.80;84.30
68764;DHT22;55754;52.038;5.566;2023-03-25T16:38:30;11.90;84.60
68764;DHT22;55754;52.038;5.566;2023-03-25T16:41:08;11.90;84.60
68764;DHT22;55754;52.038;5.566;2023-03-25T16:43:34;11.90;83.60
68764;DHT22;55754;52.038;5.566;2023-03-25T16:46:02;12.00;83.50
68764;DHT22;55754;52.038;5.566;2023-03-25T16:48:42;12.00;83.40
68764;DHT22;55754;52.038;5.566;2023-03-25T16:51:15;12.00;82.90
68764;DHT22;55754;52.038;5.566;2023-03-25T16:53:42;12.00;83.60
68764;DHT22;55754;52.038;5.566;2023-03-25T16:58:35;11.60;86.20
68764;DHT22;55754;52.038;5.566;2023-03-25T17:01:08;11.40;87.20
68764;DHT22;55754;52.038;5.566;2023-03-25T17:03:46;11.20;87.50
68764;DHT22;55754;52.038;5.566;2023-03-25T17:06:31;11.10;88.40
68764;DHT22;55754;52.038;5.566;2023-03-25T17:09:06;11.10;89.40
68764;DHT22;55754;52.038;5.566;2023-03-25T17:11:34;11.10;89.40
68764;DHT22;55754;52.038;5.566;2023-03-25T17:14:05;11.00;90.00
68764;DHT22;55754;52.038;5.566;2023-03-25T17:16:33;11.00;90.20
68764;DHT22;55754;52.038;5.566;2023-03-25T17:19:01;10.90;90.40
68764;DHT22;55754;52.038;5.566;2023-03-25T17:21:30;11.00;90.70
68764;DHT22;55754;52.038;5.566;2023-03-25T17:24:00;10.90;91.10
68764;DHT22;55754;52.038;5.566;2023-03-25T17:26:32;10.90;91.70
68764;DHT22;55754;52.038;5.566;2023-03-25T17:28:59;10.80;91.90
68764;DHT22;55754;52.038;5.566;2023-03-25T17:34:13;10.90;92.20
68764;DHT22;55754;52.038;5.566;2023-03-25T17:36:44;10.80;92.70
68764;DHT22;55754;52.038;5.566;2023-03-25T17:39:23;11.20;92.80
68764;DHT22;55754;52.038;5.566;2023-03-25T17:41:59;10.90;92.80
68764;DHT22;55754;52.038;5.566;2023-03-25T17:44:32;10.90;92.90
68764;DHT22;55754;52.038;5.566;2023-03-25T17:47:00;10.90;92.90
68764;DHT22;55754;52.038;5.566;2023-03-25T17:49:26;10.90;93.30
68764;DHT22;55754;52.038;5.566;2023-03-25T17:51:51;10.90;93.10
68764;DHT22;55754;52.038;5.566;2023-03-25T17:54:17;10.90;93.10
68764;DHT22;55754;52.038;5.566;2023-03-25T17:56:43;10.90;93.20
68764;DHT22;55754;52.038;5.566;2023-03-25T17:59:20;10.90;93.40
68764;DHT22;55754;52.038;5.566;2023-03-25T18:01:46;10.90;93.90
68764;DHT22;55754;52.038;5.566;2023-03-25T18:04:14;10.80;93.40
68764;DHT22;55754;52.038;5.566;2023-03-25T18:06:40;10.70;93.00
68764;DHT22;55754;52.038;5.566;2023-03-25T18:09:18;10.70;92.80